AirNav   SIMCOM
 
 969 users online  

3N6 Old Bridge Airport
Old Bridge, New Jersey, USA

GOING TO OLD BRIDGE?


FAA INFORMATION EFFECTIVE 07 DECEMBER 2017

Location

FAA Identifier: 3N6
Lat/Long: 40-19-47.5920N / 074-20-48.4330W
40-19.793200N / 074-20.807217W
40.3298867 / -74.3467869
(estimated)
Elevation: 87 ft. / 27 m (estimated)
Variation: 13W (2010)
From city: 5 miles S of OLD BRIDGE, NJ
Time zone: UTC -5 (UTC -4 during Daylight Saving Time)
Zip code: 08831

Airport Operations

Airport use: Open to the public
Activation date: 02/1966
Control tower: no
ARTCC: NEW YORK CENTER
FSS: MILLVILLE FLIGHT SERVICE STATION
NOTAMs facility: MIV (NOTAM-D service available)
Attendance: DAYLIGHT HOURS
Wind indicator: lighted
Segmented circle: yes
Lights: ACTVT REIL RWY 6/24; MIRL RWY 06/24 - CTAF.
Beacon: white-green (lighted land airport)
ACTVT ROTG BCN - CTAF.

Airport Communications

CTAF/UNICOM: 123.075
MC GUIRE APPROACH: 124.15
MC GUIRE DEPARTURE: 124.15
WX AWOS-3PT at BLM (13 nm SE): 121.625 (732-938-3330)
WX AWOS-AV at N12 (18 nm SE): 122.8 (732-363-6471)
WX AWOS-3 at LDJ (18 nm N): 124.025 (908-862-7383)

Nearby radio navigation aids

VOR radial/distance  VOR name  Freq  Var
COLr288/8.6COLTS NECK VOR/DME115.4011W
RBVr052/10.2ROBBINSVILLE VORTAC113.8010W
GXUr043/22.4MC GUIRE VORTAC110.6012W
SBJr140/23.6SOLBERG VOR/DME112.9010W
ARDr090/26.1YARDLEY VOR/DME108.2010W
CRIr242/26.7CANARSIE VOR/DME112.3011W
CYNr017/31.0COYLE VORTAC113.4010W
JFKr247/31.9KENNEDY VOR/DME115.9012W
TEBr214/33.7TETERBORO VOR/DME108.4011W
PNEr074/(33.8)NORTH PHILADELPHIA VOR112.0010W
LGAr231/34.9LA GUARDIA VOR/DME113.1012W
BWZr153/35.5BROADWAY VOR/DME114.2011W

 
NDB name  Hdg/Dist  Freq  Var  ID
LAKEHURST009/17.139611WNEL -. . .-..
CHATHAM184/24.925413WCAT -.-. .- -
BRIDGE248/25.641412WOGY --- --. -.--

Airport Services

Fuel available: 100LL
Parking: hangars and tiedowns
Airframe service: MAJOR
Powerplant service: MAJOR
Bottled oxygen: NONE
Bulk oxygen: NONE

Runway Information

Runway 6/24

Dimensions: 3594 x 50 ft. / 1095 x 15 m
Surface: asphalt, in good condition
Runway edge lights: medium intensity
RUNWAY 6  RUNWAY 24
Latitude: 40-19.581100N40-20.004800N
Longitude: 074-21.077000W074-20.537000W
Elevation: 63.0 ft.86.0 ft.
Traffic pattern: leftright
Runway heading: 057 magnetic, 044 true237 magnetic, 224 true
Displaced threshold: 600 ft.400 ft.
Markings: nonprecision, in good conditionnonprecision, in good condition
Visual slope indicator: 2-light PAPI on left (4.00 degrees glide path)2-light PAPI on right (4.00 degrees glide path)
Runway end identifier lights: yesyes
Touchdown point: yes, no lightsyes, no lights
Obstructions: 80 ft. tree, 280 ft. from runway, 200 ft. right of centerline, 1:1 slope to clear
RWY 06; 16 FT HNGR 53 FT FROM RWY END 200 FT L OF CNTRLN; 25 FT TREELINE 125 FT FROM RWY END ACRS CNTRLN.
40 ft. tree, 400 ft. from runway, 135 ft. left of centerline, 5:1 slope to clear
RY 24 APCH SLOPE 20:1 TO DSPLCD THLD.

Airport Ownership and Management from official FAA records

Ownership: Privately-owned
Owner: MADISON INC.
182 PENSION RD
ENGLISHTOWN, NJ 07726
Phone 732-446-0303
DBA OLD BRIDGE A/P.
Manager: PAUL CERNIGLIA
182 PENSION RD
ENGLISHTOWN, NJ 07726
Phone 732-446-0303

Airport Operational Statistics

Aircraft based on the field: 91
Single engine airplanes: 85
Multi engine airplanes: 5
Helicopters: 1
    
Aircraft operations: avg 39/day *
69% local general aviation
31% transient general aviation
* for 12-month period ending 06 November 2008

Additional Remarks

NO TOUCH & GO.
GCO AVBL ON FREQ 121.725 THRU MIV RADIO.
TREES ALONG EAST SIDE OF RWY 06/24.

Instrument Procedures

NOTE: All procedures below are presented as PDF files. If you need a reader for these files, you should download the free Adobe Reader.

NOT FOR NAVIGATION. Please procure official charts for flight.
FAA instrument procedures published for use between 7 December 2017 at 0901Z and 4 January 2018 at 0900Z.

 
IAPs - Instrument Approach Procedures
RNAV (GPS) RWY 06   download (184KB)
RNAV (GPS) RWY 24   download (179KB)
VOR RWY 24   download (202KB)
NOTE: Special Take-Off Minimums/Departure Procedures apply   download (150KB)

Other nearby airports with instrument procedures:

KBLM - Monmouth Executive Airport (13 nm SE)
N87 - Trenton-Robbinsville Airport (14 nm SW)
39N - Princeton Airport (15 nm W)
47N - Central Jersey Regional Airport (16 nm NW)
N12 - Lakewood Airport (18 nm SE)
KNEL - Lakehurst Maxfield Field Airport (18 nm S)
KLDJ - Linden Airport (18 nm N)
 
Loc | Ops | Rwys | IFR | FBO | Links
Com | Nav | Svcs | Stats | Notes


 
Area around 3N6 (Old Bridge Airport)
 
Road maps at: MapQuest Bing Google
 
Aerial photo
WARNING: Photo may not be current or correct
Aerial photo of 3N6 (Old Bridge Airport)
Photo by Coleen Abrams
Photo taken 30-Sep-2007

Do you have a better or more recent aerial photo of Old Bridge Airport that you would like to share? If so, please send us your photo.

 
Sectional chart

 
Airport distance calculator
Flying to Old Bridge Airport? Find the distance to fly.

From to 3N6

Sunrise and sunset
Times for 17-Dec-2017
 Local
(UTC-5)
 Zulu
(UTC)
Morning civil twilight06:4511:45
Sunrise07:1512:15
Sunset16:3221:32
Evening civil twilight17:0222:02

Current date and time
Zulu (UTC)  18-Dec-2017 01:33:31
Local (UTC-5)  17-Dec-2017 20:33:31
 
METAR
KBLM 
14nm SE 
AWOS-3 121.625 732-938-3330
180118Z AUTO 00000KT 10SM BKN020 02/01 A3024 RMK AO2 FZRANO
KLDJ 
18nm N 
180115Z AUTO 00000KT 10SM BKN017 BKN022 BKN120 03/M03 A3026 RMK AO2 T00271026
KNEL 
19nm S 
180100Z AUTO 00000KT 10SM CLR 01/M01 A3022 RMK AO2 SLP232 T00061011 FZRANO PNO $
KTTN 
22nm W 
ASOS 133.70 609-538-8690
180053Z 06005KT 10SM CLR 02/M02 A3023 RMK AO2 SLP234 T00221022
KWRI 
22nm SW 
180056Z AUTO 07003KT 10SM FEW140 01/M01 A3020 RMK AO2 SLP228 T00081011 $
KSMQ 
23nm NW 
ASOS 120.60 908-722-2139
180053Z AUTO 00000KT 10SM CLR 00/M02 A3023 RMK AO2 SLP241 T00001022
KEWR 
23nm N 
180101Z 03004KT 10SM BKN022 BKN120 BKN250 02/M03 A3026 RMK AO2 T00221028
KMJX 
24nm S 
AWOS-3 119.875 732-244-4450
180056Z AUTO 04003KT 10SM CLR 01/M01 A3024 RMK AO2 SLP246 T00111006 FZRANO
KJRB 
27nm NE 
180115Z 05006KT 10SM OVC021 04/M01 RMK AO2 PWINO FZRANO RVRNO
KMMU 
27nm N 
180059Z 00000KT 10SM SCT120 00/M03 A3025
TAF
KTTN 
22nm W 
171740Z 1718/1818 07005KT P6SM BKN050 FM180500 04005KT P6SM OVC045 FM180600 04005KT P6SM OVC029 FM181300 VRB02KT P6SM BKN020 FM181700 26005KT P6SM BKN040
KWRI 
22nm SW 
171800Z 1718/1824 07006KT 9999 OVC200 QNH3018INS BECMG 1802/1803 VRB06KT 9999 SCT030 OVC080 620809 QNH3013INS BECMG 1807/1808 25006KT 4800 -RA BR BKN010 BKN030 OVC060 620308 QNH3012INS BECMG 1813/1814 25006KT 8000 BR BKN010 OVC020 620306 QNH3006INS BECMG 1817/1818 27006KT 9999 NSW OVC010 620305 QNH3002INS TX06/1818Z TN00/1808Z
KEWR 
23nm N 
171959Z 1720/1824 03004KT P6SM FEW045 OVC150 FM180200 VRB03KT P6SM SCT025 OVC080 FM180500 VRB03KT P6SM BKN020 TEMPO 1805/1808 6SM -SNPLRA SCT008 BKN012 FM180800 VRB03KT P6SM BKN015 TEMPO 1808/1812 6SM -FZRA SCT008 BKN010 FM181400 32005KT P6SM SCT020 BKN080 FM181700 26007KT P6SM FEW020 SCT250
NOTAMs
Click for the latest NOTAMs
NOTAMs are issued by the DoD/FAA and will open in a separate window not controlled by AirNav.

 

 
 

FBO, Fuel Providers, and Aircraft Ground Support

  
 Business Name 
 
 Contact 
 
 Services / Description 
 
Fuel Prices
 
Comments
  
Old Bridge Airport 732-446-0303 Airport management, Aviation fuel, Aircraft parking (ramp or tiedown), Hangar leasing / sales, Pilots lounge / snooze room, Restrooms

More info about Old Bridge Airport
Phillips 66
100LL
AS $5.35 
 Updated 17-Dec-2017
 
   1 read write
AS=Assisted/Self Service
Update Fuel Prices
 

Aviation Businesses, Services, and Facilities

  
 Business Name 
 
 Contact 
 
 Services / Description 
 
Distance
 
Comments
  
 Old Bridge Flight School
732-483-4596
[web site]
[email]
Flight training, Aircraft rental, Aerial tours / aerial sightseeing, Aerial photography, Pilot supplies, Pilots lounge / snooze room, Public telephone, Computerized weather, ...

More info about Old Bridge Flight School
on airport  
   3 read write
 

Would you like to see your business listed on this page?

 If your business provides an interesting product or service to pilots, flight crews, aircraft, or users of the Old Bridge Airport, you should consider listing it here.  To start the listing process, click on the button below
 
Add a business
 

Other Pages about Old Bridge Airport

Update a link
 
Copyright © AirNav, LLC. All rights reserved. Privacy Policy  Contact